createdAt,value
2023-01-11T00:02:17.977Z,100544.82
2023-01-11T00:04:46.844Z,100545.66
2023-01-11T00:07:13.585Z,100548.42
2023-01-11T00:09:40.280Z,100544.98
2023-01-11T00:12:07.756Z,100550.46
2023-01-11T00:14:34.341Z,100547.55
2023-01-11T00:17:01.052Z,100546.02
2023-01-11T00:19:27.651Z,100547.90
2023-01-11T00:21:54.411Z,100549.45
2023-01-11T00:24:20.976Z,100542.92
2023-01-11T00:26:47.925Z,100545.34
2023-01-11T00:29:14.670Z,100545.34
2023-01-11T00:31:44.070Z,100548.58
2023-01-11T00:34:10.568Z,100546.86
2023-01-11T00:36:37.337Z,100549.96
2023-01-11T00:39:03.894Z,100554.24
2023-01-11T00:41:49.190Z,100551.67
2023-01-11T00:44:34.380Z,100554.24
2023-01-11T00:47:20.372Z,100547.21
2023-01-11T00:49:46.897Z,100550.81
2023-01-11T00:52:13.477Z,100555.11
2023-01-11T00:54:40.692Z,100552.02
2023-01-11T00:57:07.425Z,100550.98
2023-01-11T00:59:34.900Z,100555.45
2023-01-11T01:02:03.049Z,100559.23
2023-01-11T01:04:31.193Z,100568.14
2023-01-11T01:06:57.980Z,100567.46
2023-01-11T01:09:24.725Z,100574.67
2023-01-11T01:11:51.543Z,100571.41
2023-01-11T01:17:21.563Z,100572.27
2023-01-11T01:19:48.261Z,100571.05
2023-01-11T01:22:14.987Z,100576.71
2023-01-11T01:24:41.823Z,100575.34
2023-01-11T01:27:08.591Z,100569.34
2023-01-11T01:29:35.299Z,100565.41
2023-01-11T01:32:02.059Z,100570.36
2023-01-11T01:34:28.844Z,100576.20
2023-01-11T01:36:55.535Z,100575.00
2023-01-11T01:39:22.419Z,100582.20
2023-01-11T01:41:49.139Z,100587.02
2023-01-11T02:25:20.687Z,100583.71
2023-01-11T02:28:05.904Z,100583.89
2023-01-11T02:30:35.730Z,100588.17
2023-01-11T02:33:37.786Z,100591.79
2023-01-11T02:36:23.474Z,100584.59
2023-01-11T02:39:02.518Z,100580.98
2023-01-11T02:41:55.341Z,100586.66
2023-01-11T02:44:50.933Z,100579.29
2023-01-11T02:47:21.234Z,100577.57
2023-01-11T02:49:52.376Z,100579.27
2023-01-11T02:52:23.035Z,100574.98
2023-01-11T02:54:54.224Z,100576.00
2023-01-11T02:57:21.188Z,100572.58
2023-01-11T02:59:50.034Z,100573.25
2023-01-11T03:02:19.695Z,100572.91
2023-01-11T03:04:46.437Z,100570.15
2023-01-11T03:07:51.224Z,100570.65
2023-01-11T03:10:37.059Z,100571.67
2023-01-11T03:13:22.889Z,100579.39
2023-01-11T03:16:21.380Z,100585.05
2023-01-11T03:18:54.447Z,100593.30
2023-01-11T03:21:39.877Z,100598.10
2023-01-11T03:24:12.829Z,100597.77
2023-01-11T03:27:17.771Z,100603.40
2023-01-11T03:29:58.822Z,100602.53
2023-01-11T03:32:29.696Z,100606.79
2023-01-11T03:35:41.282Z,100602.82
2023-01-11T03:38:13.523Z,100612.08
2023-01-11T03:40:42.415Z,100617.40
2023-01-11T03:43:13.533Z,100619.13
2023-01-11T03:45:45.742Z,100623.08
2023-01-11T03:48:15.434Z,100623.40
2023-01-11T03:50:42.245Z,100621.84
2023-01-11T03:53:08.969Z,100614.08
2023-01-11T03:55:39.120Z,100617.50
2023-01-11T03:58:06.023Z,100615.10
2023-01-11T04:00:32.816Z,100614.94
2023-01-11T04:03:00.383Z,100616.11
2023-01-11T04:05:27.059Z,100615.91
2023-01-11T04:07:53.758Z,100621.90
2023-01-11T04:10:20.622Z,100628.08
2023-01-11T04:12:48.273Z,100623.29
2023-01-11T04:15:16.164Z,100632.35
2023-01-11T04:17:42.932Z,100630.11
2023-01-11T04:20:10.778Z,100631.96
2023-01-11T04:22:37.608Z,100631.95
2023-01-11T04:25:05.121Z,100618.59
2023-01-11T04:27:31.960Z,100616.70
2023-01-11T04:29:58.701Z,100631.78
2023-01-11T04:32:25.513Z,100635.55
2023-01-11T04:34:52.172Z,100650.45
2023-01-11T04:37:18.959Z,100654.92
2023-01-11T04:39:45.660Z,100655.24
2023-01-11T04:42:18.389Z,100655.20
2023-01-11T04:44:46.567Z,100660.69
2023-01-11T04:47:13.535Z,100665.48
2023-01-11T04:49:40.255Z,100662.90
2023-01-11T04:52:06.987Z,100664.08
2023-01-11T04:54:33.667Z,100662.31
2023-01-11T04:57:00.543Z,100667.21
2023-01-11T04:59:27.275Z,100666.52
2023-01-11T05:01:54.048Z,100667.38
2023-01-11T05:04:20.954Z,100669.27
2023-01-11T05:06:47.930Z,100663.63
2023-01-11T05:09:15.922Z,100665.89
2023-01-11T05:11:42.806Z,100669.34
2023-01-11T05:14:09.561Z,100664.05
2023-01-11T05:16:36.317Z,100660.13
2023-01-11T05:19:03.340Z,100662.86
2023-01-11T05:21:31.948Z,100663.52
2023-01-11T05:23:59.659Z,100671.40
2023-01-11T05:26:28.723Z,100677.71
2023-01-11T05:28:56.832Z,100675.63
2023-01-11T05:31:23.673Z,100674.42
2023-01-11T05:33:50.424Z,100686.75
2023-01-11T05:36:19.741Z,100685.04
2023-01-11T05:38:47.409Z,100686.09
2023-01-11T05:41:14.261Z,100690.73
2023-01-11T05:43:59.971Z,100690.92
2023-01-11T05:46:26.855Z,100691.10
2023-01-11T05:48:55.102Z,100695.18
2023-01-11T05:51:22.361Z,100692.77
2023-01-11T05:53:49.127Z,100688.13
2023-01-11T05:56:15.819Z,100700.95
2023-01-11T05:58:42.555Z,100696.69
2023-01-11T06:01:11.941Z,100700.80
2023-01-11T06:03:38.650Z,100691.73
2023-01-11T06:06:05.533Z,100698.71
2023-01-11T06:08:32.320Z,100708.71
2023-01-11T06:10:59.133Z,100710.06
2023-01-11T06:13:29.037Z,100712.82
2023-01-11T06:16:02.502Z,100715.39
2023-01-11T06:18:33.237Z,100711.84
2023-01-11T06:21:01.273Z,100705.87
2023-01-11T06:23:29.251Z,100701.41
2023-01-11T06:25:55.950Z,100697.11
2023-01-11T06:28:22.798Z,100700.35
2023-01-11T06:30:53.549Z,100697.06
2023-01-11T06:33:20.640Z,100696.16
2023-01-11T06:36:05.516Z,100698.71
2023-01-11T06:38:34.244Z,100701.85
2023-01-11T10:58:35.061Z,100596.42
2023-01-11T11:01:19.013Z,100598.96
2023-01-11T11:03:52.119Z,100603.86
2023-01-11T11:06:43.735Z,100604.45
2023-01-11T11:09:22.751Z,100598.87
2023-01-11T11:11:59.918Z,100603.14
2023-01-11T11:14:46.556Z,100606.39
2023-01-11T11:17:25.438Z,100604.17
2023-01-11T11:19:53.130Z,100605.63
2023-01-11T11:22:21.072Z,100612.20
2023-01-11T11:25:13.624Z,100607.61
2023-01-11T11:27:52.820Z,100603.05
2023-01-11T11:30:49.761Z,100606.15
2023-01-11T11:33:59.426Z,100607.14
2023-01-11T11:36:26.249Z,100596.45
2023-01-11T11:39:03.545Z,100582.85
2023-01-11T11:41:31.529Z,100581.11
2023-01-11T11:44:09.117Z,100590.92
2023-01-11T11:46:35.814Z,100594.16
2023-01-11T11:49:18.065Z,100600.54
2023-01-11T11:51:45.992Z,100601.77
2023-01-11T11:54:20.181Z,100608.40
2023-01-11T11:56:49.000Z,100613.88
2023-01-11T11:59:32.502Z,100616.05
2023-01-11T12:02:29.034Z,100611.39
2023-01-11T12:04:57.165Z,100610.76
2023-01-11T12:07:27.142Z,100611.13
2023-01-11T12:10:00.018Z,100610.10
2023-01-11T12:12:29.476Z,100602.38
2023-01-11T12:15:15.433Z,100593.62
2023-01-11T12:17:43.870Z,100600.34
2023-01-11T12:20:39.660Z,100592.09
2023-01-11T12:23:19.970Z,100588.98
2023-01-11T12:26:15.106Z,100602.89
2023-01-11T12:29:06.869Z,100599.13
2023-01-11T12:32:09.905Z,100602.39
2023-01-11T12:34:41.003Z,100599.11
2023-01-11T12:37:15.611Z,100592.06
2023-01-11T12:39:59.334Z,100585.02
2023-01-11T12:43:01.618Z,100583.30
2023-01-11T12:45:42.939Z,100586.58
2023-01-11T12:48:45.641Z,100594.82
2023-01-11T12:51:23.043Z,100593.77
2023-01-11T12:54:01.942Z,100588.77
2023-01-11T12:56:31.738Z,100596.98
2023-01-11T12:59:22.103Z,100598.21
2023-01-11T13:02:07.463Z,100584.50
2023-01-11T13:05:12.786Z,100581.45
2023-01-11T13:07:47.259Z,100589.05
2023-01-11T13:10:42.673Z,100591.98
2023-01-11T13:13:48.294Z,100590.09
2023-01-11T13:34:31.502Z,100623.73
2023-01-11T13:37:00.721Z,100627.52
2023-01-11T13:39:27.894Z,100626.30
2023-01-11T13:41:57.481Z,100626.96
2023-01-11T13:44:29.848Z,100630.90
2023-01-11T13:47:44.084Z,100634.30
2023-01-11T13:51:13.718Z,100630.86
2023-01-11T13:53:43.457Z,100624.50
2023-01-11T13:56:17.605Z,100621.89
2023-01-11T13:59:19.233Z,100621.34
2023-01-11T14:02:11.209Z,100628.19
2023-01-11T14:05:00.426Z,100632.10
2023-01-11T14:07:30.878Z,100629.89
2023-01-11T14:09:57.937Z,100631.26
2023-01-11T14:12:30.447Z,100629.90
2023-01-11T14:15:06.409Z,100634.88
2023-01-11T14:17:45.829Z,100638.46
2023-01-11T14:20:31.898Z,100630.92
2023-01-11T14:23:06.844Z,100628.71
2023-01-11T14:25:36.141Z,100633.52
2023-01-11T14:28:45.466Z,100650.16
2023-01-11T14:31:40.266Z,100655.83
2023-01-11T14:34:24.593Z,100647.77
2023-01-11T14:37:32.968Z,100649.50
2023-01-11T14:40:30.911Z,100652.23
2023-01-11T14:43:16.516Z,100651.72
2023-01-11T14:46:14.481Z,100649.83
2023-01-11T14:49:01.072Z,100644.52
2023-01-11T14:51:33.698Z,100639.38
2023-01-11T14:54:15.061Z,100644.50
2023-01-11T14:56:41.733Z,100653.39
2023-01-11T14:59:30.348Z,100657.52
2023-01-11T15:02:03.958Z,100658.20
2023-01-11T15:04:31.625Z,100665.58
2023-01-11T15:06:59.159Z,100671.23
2023-01-11T15:09:44.844Z,100665.60
2023-01-11T15:12:16.988Z,100665.25
2023-01-11T15:14:53.615Z,100666.44
2023-01-11T15:17:40.437Z,100677.73
2023-01-11T15:20:11.542Z,100674.66
2023-01-11T15:22:38.407Z,100664.70
2023-01-11T15:25:21.078Z,100663.82
2023-01-11T15:27:47.847Z,100665.05
2023-01-11T15:30:34.988Z,100666.77
2023-01-11T15:33:16.934Z,100662.50
2023-01-11T15:36:01.002Z,100662.02
2023-01-11T15:38:32.185Z,100659.62
2023-01-11T15:41:21.695Z,100649.66
2023-01-11T15:44:25.506Z,100650.69
2023-01-11T15:46:55.191Z,100644.67
2023-01-11T15:49:28.202Z,100638.80
2023-01-11T15:52:03.875Z,100639.98
2023-01-11T15:54:37.451Z,100636.03
2023-01-11T15:57:13.588Z,100635.34
2023-01-11T15:59:59.574Z,100632.95
2023-01-11T16:02:44.889Z,100628.17
2023-01-11T16:05:20.838Z,100630.05
2023-01-11T16:08:01.037Z,100631.60
2023-01-11T16:10:46.749Z,100635.21
2023-01-11T16:13:51.547Z,100636.91
2023-01-11T16:16:24.343Z,100644.27
2023-01-11T16:18:57.673Z,100644.79
2023-01-11T16:21:37.162Z,100645.33
2023-01-11T16:24:04.890Z,100643.46
2023-01-11T16:26:31.811Z,100641.08
2023-01-11T16:28:58.579Z,100644.35
2023-01-11T16:31:25.938Z,100646.43
2023-01-11T16:33:52.844Z,100647.65
2023-01-11T16:36:22.212Z,100655.72
2023-01-11T16:39:02.296Z,100651.75
2023-01-11T16:41:37.450Z,100650.05
2023-01-11T16:44:06.519Z,100656.91
2023-01-11T16:46:45.590Z,100658.98
2023-01-11T16:49:15.982Z,100667.56
2023-01-11T16:51:42.884Z,100674.95
2023-01-11T16:54:17.034Z,100666.05
2023-01-11T16:56:47.922Z,100665.04
2023-01-11T16:59:14.557Z,100659.04
2023-01-11T17:01:50.432Z,100657.65
2023-01-11T17:04:32.739Z,100656.61
2023-01-11T17:07:18.569Z,100651.48
2023-01-11T17:09:45.086Z,100647.38
2023-01-11T17:12:21.355Z,100647.72
2023-01-11T17:15:29.839Z,100645.67
2023-01-11T17:17:56.364Z,100649.60
2023-01-11T17:20:29.358Z,100652.00
2023-01-11T17:22:56.509Z,100649.92
2023-01-11T17:25:37.299Z,100645.29
2023-01-11T17:28:17.940Z,100640.49
2023-01-11T17:30:45.081Z,100636.38
2023-01-11T17:33:27.393Z,100634.31
2023-01-11T17:35:54.391Z,100637.05
2023-01-11T17:38:21.875Z,100634.64
2023-01-11T17:40:48.570Z,100632.91
2023-01-11T17:43:37.096Z,100631.73
2023-01-11T17:46:04.518Z,100630.17
2023-01-11T17:48:31.317Z,100632.22
2023-01-11T17:50:59.398Z,100639.42
2023-01-11T17:53:27.652Z,100639.94
2023-01-11T17:56:01.435Z,100641.96
2023-01-11T17:58:33.190Z,100645.52
2023-01-11T18:01:15.471Z,100630.27
2023-01-11T18:03:43.305Z,100629.92
2023-01-11T18:06:13.718Z,100627.34
2023-01-11T18:08:46.421Z,100623.05
2023-01-11T18:11:24.211Z,100616.71
2023-01-11T18:13:52.758Z,100608.80
2023-01-11T18:16:20.165Z,100597.48
2023-01-11T18:18:51.986Z,100595.05
2023-01-11T18:21:25.120Z,100594.70
2023-01-11T18:24:14.533Z,100592.65
2023-01-11T18:26:45.508Z,100585.77
2023-01-11T18:29:38.756Z,100582.99
2023-01-11T18:32:09.988Z,100581.27
2023-01-11T18:34:36.714Z,100578.52
2023-01-11T18:37:09.427Z,100575.27
2023-01-11T18:39:36.242Z,100573.89
2023-01-11T18:42:07.495Z,100579.90
2023-01-11T18:44:41.526Z,100574.77
2023-01-11T18:47:14.608Z,100575.96
2023-01-11T18:49:41.179Z,100574.58
2023-01-11T18:52:10.840Z,100573.37
2023-01-11T18:54:37.889Z,100571.48
2023-01-11T18:57:05.131Z,100567.85
2023-01-11T18:59:32.815Z,100568.17
2023-01-11T19:02:26.429Z,100568.52
2023-01-11T19:04:54.201Z,100559.96
2023-01-11T19:07:22.333Z,100559.09
2023-01-11T19:09:49.363Z,100557.04
2023-01-11T19:12:17.858Z,100552.06
2023-01-11T19:14:44.572Z,100555.83
2023-01-11T19:17:12.489Z,100544.68
2023-01-11T19:19:39.231Z,100535.75
2023-01-11T19:22:06.079Z,100531.44
2023-01-11T19:24:33.299Z,100530.94
2023-01-11T19:27:00.087Z,100528.70
2023-01-11T19:29:27.137Z,100522.05
2023-01-11T19:31:57.116Z,100515.91
2023-01-11T20:10:40.785Z,100511.45
2023-01-11T20:13:07.602Z,100507.36
2023-01-11T20:15:34.503Z,100506.85
2023-01-11T20:18:01.289Z,100496.75
2023-01-11T20:20:31.102Z,100487.00
2023-01-11T20:22:58.054Z,100485.98
2023-01-11T20:25:24.846Z,100489.90
2023-01-11T20:27:51.746Z,100494.51
2023-01-11T20:30:18.575Z,100488.86
2023-01-11T20:32:45.295Z,100498.45
2023-01-11T20:35:12.058Z,100492.61
2023-01-11T20:37:38.999Z,100499.42
2023-01-11T20:40:06.748Z,100493.42
2023-01-11T20:42:34.336Z,100496.02
2023-01-11T20:45:01.045Z,100492.43
2023-01-11T20:47:27.817Z,100488.01
2023-01-11T20:49:54.562Z,100487.86
2023-01-11T20:52:21.509Z,100488.39
2023-01-11T20:54:48.226Z,100488.21
2023-01-11T20:57:14.974Z,100483.75
2023-01-11T20:59:41.717Z,100487.02
2023-01-11T21:02:10.327Z,100486.16
2023-01-11T21:04:37.168Z,100481.69
2023-01-11T21:07:04.197Z,100483.56
2023-01-11T21:09:30.929Z,100483.21
2023-01-11T21:11:57.667Z,100489.71
2023-01-11T21:14:24.395Z,100492.27
2023-01-11T21:16:54.846Z,100493.78
2023-01-11T21:19:21.892Z,100493.95
2023-01-11T21:21:49.813Z,100492.26
2023-01-11T21:24:16.756Z,100488.65
2023-01-11T21:26:45.796Z,100486.60
2023-01-11T21:29:13.335Z,100481.45
2023-01-11T21:31:41.046Z,100485.06
2023-01-11T21:34:08.489Z,100485.23
2023-01-11T21:36:35.245Z,100493.44
2023-01-11T21:39:02.786Z,100491.20
2023-01-11T21:41:49.847Z,100491.02
2023-01-11T21:44:16.917Z,100494.94
2023-01-11T21:46:43.721Z,100492.21
2023-01-11T21:49:11.027Z,100494.96
2023-01-11T21:51:38.069Z,100500.45
2023-01-11T21:54:09.803Z,100500.11
2023-01-11T21:56:36.684Z,100494.80
2023-01-11T21:59:03.611Z,100490.53
2023-01-11T22:01:30.473Z,100488.99
2023-01-11T22:03:57.373Z,100491.91
2023-01-11T22:06:24.356Z,100492.42
2023-01-11T22:08:51.412Z,100497.71
2023-01-11T22:11:18.401Z,100498.58
2023-01-11T22:13:45.179Z,100503.02
2023-01-11T22:16:16.151Z,100498.39
2023-01-11T22:18:43.687Z,100494.31
2023-01-11T22:21:15.471Z,100491.89
2023-01-11T22:23:42.399Z,100490.83
2023-01-11T22:26:16.710Z,100494.40
2023-01-11T22:29:02.950Z,100492.88
2023-01-11T22:31:30.127Z,100491.67
2023-01-11T22:33:56.977Z,100486.36
2023-01-11T22:36:23.850Z,100485.51
2023-01-11T22:38:52.065Z,100492.70
2023-01-11T22:41:18.973Z,100488.08
2023-01-11T22:43:46.121Z,100489.27
2023-01-11T22:46:18.289Z,100486.02
2023-01-11T22:48:46.989Z,100485.33
2023-01-11T22:51:14.193Z,100477.64
2023-01-11T22:53:42.309Z,100475.08
2023-01-11T22:56:09.528Z,100470.95
2023-01-11T22:58:36.569Z,100468.39
2023-01-11T23:01:22.342Z,100465.98
2023-01-11T23:03:49.692Z,100458.80
2023-01-11T23:06:18.344Z,100451.09
2023-01-11T23:08:45.219Z,100453.14
2023-01-11T23:11:40.069Z,100456.20
2023-01-11T23:14:08.984Z,100452.08
2023-01-11T23:16:35.997Z,100454.12
2023-01-11T23:19:03.542Z,100451.72
2023-01-11T23:21:30.416Z,100455.98
2023-01-11T23:23:57.215Z,100449.81
2023-01-11T23:26:23.919Z,100453.91
2023-01-11T23:28:50.615Z,100442.07
2023-01-11T23:31:24.142Z,100442.58
2023-01-11T23:33:55.436Z,100444.94
2023-01-11T23:36:23.372Z,100447.50
2023-01-11T23:38:50.746Z,100445.80
2023-01-11T23:41:37.236Z,100443.75
2023-01-11T23:44:09.424Z,100449.73
2023-01-11T23:46:55.480Z,100452.99
2023-01-11T23:49:22.505Z,100449.08
2023-01-11T23:51:49.191Z,100447.21
2023-01-11T23:54:15.901Z,100447.38
2023-01-11T23:56:42.691Z,100444.98
2023-01-11T23:59:09.520Z,100446.20
